Time;durP1;ratioP1;P1;durP2;ratioP2;P2;SDS_P1;SDS_P2;PMS_P1;PMS_P2;Temp;Humidity;BMP_temperature;BMP_pressure;BME280_temperature;BME280_humidity;BME280_pressure;Samples;Min_cycle;Max_cycle;Signal;HPM_P1;HPM_P2
2022/07/16 00:01:22;;;;;;;3.00;2.90;;;;;;;;;;5035460;28;20423;-88
2022/07/16 00:03:49;;;;;;;3.00;2.80;;;;;;;;;;5051861;28;20445;-88
2022/07/16 00:06:15;;;;;;;3.00;2.90;;;;;;;;;;5026920;28;20986;-88
2022/07/16 00:08:41;;;;;;;2.80;2.63;;;;;;;;;;5039375;28;20437;-89
2022/07/16 00:11:07;;;;;;;2.60;2.50;;;;;;;;;;5037300;28;20486;-89
2022/07/16 00:13:33;;;;;;;3.00;2.90;;;;;;;;;;5033200;28;20997;-88
2022/07/16 00:15:59;;;;;;;2.73;2.57;;;;;;;;;;5032079;28;20445;-88
2022/07/16 00:21:10;;;;;;;3.50;3.03;;;;;;;;;;5052952;28;21028;-88
2022/07/16 00:23:37;;;;;;;2.67;2.67;;;;;;;;;;5041088;28;20525;-88
2022/07/16 00:26:03;;;;;;;3.27;3.20;;;;;;;;;;5030013;28;20525;-88
2022/07/16 00:28:29;;;;;;;2.60;2.30;;;;;;;;;;5033862;28;20433;-88
2022/07/16 00:30:54;;;;;;;3.57;3.37;;;;;;;;;;5038956;28;21160;-89
2022/07/16 00:33:20;;;;;;;2.60;2.50;;;;;;;;;;5055452;28;20860;-88
2022/07/16 00:35:46;;;;;;;2.53;2.47;;;;;;;;;;5033329;28;21200;-87
2022/07/16 00:38:12;;;;;;;2.83;2.73;;;;;;;;;;5032742;28;20534;-89
2022/07/16 00:40:38;;;;;;;2.60;2.50;;;;;;;;;;5032049;28;20840;-88
2022/07/16 00:43:04;;;;;;;2.67;2.67;;;;;;;;;;5040776;28;20441;-88
2022/07/16 00:45:30;;;;;;;2.83;2.73;;;;;;;;;;5029806;28;20840;-87
2022/07/16 00:47:56;;;;;;;2.60;2.60;;;;;;;;;;5038326;28;20434;-87
2022/07/16 00:50:22;;;;;;;3.20;3.10;;;;;;;;;;5054651;28;20434;-89
2022/07/16 00:52:48;;;;;;;2.63;2.60;;;;;;;;;;5050847;28;20885;-87
2022/07/16 00:55:14;;;;;;;3.17;2.97;;;;;;;;;;5058624;28;20444;-90
2022/07/16 00:57:40;;;;;;;2.97;2.87;;;;;;;;;;5036170;28;20509;-90
2022/07/16 01:00:08;;;;;;;3.13;3.10;;;;;;;;;;5057928;28;20452;-88
2022/07/16 01:02:34;;;;;;;3.10;3.00;;;;;;;;;;5074928;28;20440;-89
2022/07/16 01:05:01;;;;;;;3.23;3.13;;;;;;;;;;5033237;28;20921;-89
2022/07/16 01:07:27;;;;;;;3.47;3.37;;;;;;;;;;5053133;28;20935;-90
2022/07/16 01:09:54;;;;;;;2.87;2.87;;;;;;;;;;5035510;28;20442;-87
2022/07/16 01:12:20;;;;;;;3.57;3.53;;;;;;;;;;5035872;28;20499;-87
2022/07/16 01:14:46;;;;;;;3.47;3.27;;;;;;;;;;5043037;28;20811;-87
2022/07/16 01:17:12;;;;;;;3.00;2.90;;;;;;;;;;5025563;28;20896;-88
2022/07/16 01:19:38;;;;;;;3.10;3.00;;;;;;;;;;5060010;28;20442;-88
2022/07/16 01:22:04;;;;;;;3.10;3.10;;;;;;;;;;5014288;28;20414;-87
2022/07/16 01:24:30;;;;;;;2.80;2.70;;;;;;;;;;5062203;28;20417;-88
2022/07/16 01:26:56;;;;;;;2.80;2.70;;;;;;;;;;5034690;28;20530;-88
2022/07/16 01:29:22;;;;;;;2.90;2.80;;;;;;;;;;5048808;28;20509;-88
2022/07/16 01:31:48;;;;;;;3.50;3.40;;;;;;;;;;5034044;28;20480;-88
2022/07/16 01:34:26;;;;;;;2.60;2.60;;;;;;;;;;5050036;28;20434;-88
2022/07/16 01:36:53;;;;;;;3.93;3.03;;;;;;;;;;5048931;28;20471;-87
2022/07/16 01:39:19;;;;;;;4.13;3.93;;;;;;;;;;5037126;28;20982;-88
2022/07/16 01:41:52;;;;;;;3.27;3.07;;;;;;;;;;5040980;28;20517;-87
2022/07/16 01:44:18;;;;;;;3.33;3.23;;;;;;;;;;5034394;28;20418;-88
2022/07/16 01:46:44;;;;;;;3.20;3.10;;;;;;;;;;5020233;28;20420;-89
2022/07/16 01:49:10;;;;;;;3.57;3.37;;;;;;;;;;5051287;28;20459;-88
2022/07/16 01:51:35;;;;;;;3.53;3.20;;;;;;;;;;5052131;28;20406;-88
2022/07/16 01:54:01;;;;;;;3.30;3.10;;;;;;;;;;5036746;28;20457;-89
2022/07/16 01:56:27;;;;;;;3.67;3.23;;;;;;;;;;5043975;28;20553;-88
2022/07/16 01:58:53;;;;;;;3.03;2.93;;;;;;;;;;5033493;28;20556;-89
2022/07/16 02:01:19;;;;;;;4.03;3.73;;;;;;;;;;5028142;28;20439;-88
2022/07/16 02:03:45;;;;;;;4.77;3.57;;;;;;;;;;5044053;28;20452;-88
2022/07/16 02:06:11;;;;;;;3.63;3.53;;;;;;;;;;5029690;28;20529;-88
2022/07/16 02:08:37;;;;;;;3.57;3.47;;;;;;;;;;5042669;28;20430;-87
2022/07/16 02:11:03;;;;;;;3.70;3.53;;;;;;;;;;5031289;28;20955;-89
2022/07/16 02:13:29;;;;;;;3.53;3.33;;;;;;;;;;5042844;28;20477;-89
2022/07/16 02:15:55;;;;;;;3.67;3.47;;;;;;;;;;5031655;28;20469;-88
2022/07/16 02:18:21;;;;;;;3.87;3.57;;;;;;;;;;5041911;28;20513;-87
2022/07/16 02:20:47;;;;;;;2.93;2.93;;;;;;;;;;5031429;28;20444;-89
2022/07/16 02:23:13;;;;;;;3.63;3.50;;;;;;;;;;5042169;28;20511;-88
2022/07/16 02:25:40;;;;;;;3.57;3.47;;;;;;;;;;5033707;28;20465;-89
2022/07/16 02:28:06;;;;;;;3.90;3.90;;;;;;;;;;5056652;28;20809;-88
2022/07/16 02:30:33;;;;;;;3.03;3.03;;;;;;;;;;5052516;28;20434;-88
2022/07/16 02:32:59;;;;;;;3.40;3.17;;;;;;;;;;5054966;28;20465;-90
2022/07/16 02:35:25;;;;;;;6.17;4.70;;;;;;;;;;5044425;28;20467;-89
2022/07/16 02:37:51;;;;;;;3.63;3.53;;;;;;;;;;5032954;28;20959;-88
2022/07/16 02:40:17;;;;;;;3.40;3.30;;;;;;;;;;5040002;28;21084;-89
2022/07/16 02:42:43;;;;;;;3.57;3.37;;;;;;;;;;5052320;28;20432;-88
2022/07/16 02:45:10;;;;;;;3.43;3.33;;;;;;;;;;5055941;28;20428;-88
2022/07/16 02:47:36;;;;;;;3.87;3.77;;;;;;;;;;5029927;28;20418;-89
2022/07/16 02:50:02;;;;;;;3.80;3.70;;;;;;;;;;5036695;28;20426;-88
2022/07/16 02:52:28;;;;;;;3.73;3.40;;;;;;;;;;5036008;28;20556;-88
2022/07/16 02:54:54;;;;;;;3.60;3.50;;;;;;;;;;5062200;28;20512;-88
2022/07/16 02:57:20;;;;;;;3.70;3.70;;;;;;;;;;5050677;28;20455;-88
2022/07/16 02:59:46;;;;;;;5.43;4.90;;;;;;;;;;5042817;28;20454;-88
2022/07/16 03:02:12;;;;;;;3.03;3.03;;;;;;;;;;5050437;28;20418;-89
2022/07/16 03:04:38;;;;;;;4.00;3.80;;;;;;;;;;5042834;28;20860;-88
2022/07/16 03:07:04;;;;;;;3.70;3.60;;;;;;;;;;5032450;28;20421;-89
2022/07/16 03:09:30;;;;;;;4.00;3.57;;;;;;;;;;5047709;28;20534;-88
2022/07/16 03:11:56;;;;;;;3.73;3.63;;;;;;;;;;5022182;28;20462;-89
2022/07/16 03:14:22;;;;;;;4.10;3.80;;;;;;;;;;5057352;28;20425;-88
2022/07/16 03:16:48;;;;;;;4.43;3.90;;;;;;;;;;5032786;28;20426;-89
2022/07/16 03:19:14;;;;;;;3.47;3.37;;;;;;;;;;5049311;28;20801;-88
2022/07/16 03:21:40;;;;;;;4.50;4.33;;;;;;;;;;5025707;28;20549;-89
2022/07/16 03:24:06;;;;;;;3.93;3.70;;;;;;;;;;5033407;28;20414;-88
2022/07/16 03:26:32;;;;;;;4.60;4.30;;;;;;;;;;5031363;28;20442;-87
2022/07/16 03:28:58;;;;;;;4.47;4.37;;;;;;;;;;5033932;28;20499;-87
2022/07/16 03:31:26;;;;;;;4.70;4.30;;;;;;;;;;5034451;28;20452;-88
2022/07/16 03:33:53;;;;;;;3.73;3.60;;;;;;;;;;5050056;28;20564;-87
2022/07/16 03:36:19;;;;;;;4.37;3.80;;;;;;;;;;5030507;28;20453;-88
2022/07/16 03:41:31;;;;;;;4.30;4.00;;;;;;;;;;5043210;28;20455;-88
2022/07/16 03:43:57;;;;;;;3.97;3.87;;;;;;;;;;5052471;28;20421;-87
2022/07/16 03:46:23;;;;;;;5.17;4.83;;;;;;;;;;5050855;28;20445;-87
2022/07/16 03:48:49;;;;;;;4.00;3.80;;;;;;;;;;5042019;28;20422;-87
2022/07/16 03:51:15;;;;;;;3.70;3.60;;;;;;;;;;5030420;28;20884;-87
2022/07/16 03:53:41;;;;;;;4.40;4.20;;;;;;;;;;5037366;28;20819;-88
2022/07/16 03:56:07;;;;;;;3.87;3.77;;;;;;;;;;5055279;28;21010;-88
2022/07/16 03:58:36;;;;;;;3.83;3.83;;;;;;;;;;5033464;28;20788;-88
2022/07/16 04:01:02;;;;;;;4.13;4.00;;;;;;;;;;5031176;28;20465;-89
2022/07/16 04:03:29;;;;;;;4.50;4.30;;;;;;;;;;5063100;28;20446;-89
2022/07/16 04:05:55;;;;;;;3.37;3.27;;;;;;;;;;5030368;28;20844;-88
2022/07/16 04:08:21;;;;;;;3.73;3.63;;;;;;;;;;5044255;28;20979;-89
2022/07/16 04:10:47;;;;;;;4.17;3.90;;;;;;;;;;5030003;28;20445;-89
2022/07/16 04:13:13;;;;;;;4.10;3.70;;;;;;;;;;5049992;28;20557;-89
2022/07/16 04:15:39;;;;;;;4.50;4.20;;;;;;;;;;5058676;28;20522;-90
2022/07/16 04:18:06;;;;;;;4.60;4.20;;;;;;;;;;5055939;28;20434;-88
2022/07/16 04:20:35;;;;;;;4.10;4.00;;;;;;;;;;5041595;28;21035;-88
2022/07/16 04:23:05;;;;;;;6.27;4.40;;;;;;;;;;5032256;28;20466;-89
2022/07/16 04:25:31;;;;;;;4.27;4.00;;;;;;;;;;5038838;28;20464;-89
2022/07/16 04:27:57;;;;;;;3.60;3.40;;;;;;;;;;5043316;28;20419;-89
2022/07/16 04:30:23;;;;;;;4.20;3.90;;;;;;;;;;5043386;28;20440;-88
2022/07/16 04:32:49;;;;;;;3.83;3.80;;;;;;;;;;5039380;28;20461;-88
2022/07/16 04:35:16;;;;;;;3.97;3.70;;;;;;;;;;5040566;28;20451;-88
2022/07/16 04:37:42;;;;;;;3.87;3.70;;;;;;;;;;5038171;28;20919;-88
2022/07/16 04:40:09;;;;;;;4.20;4.00;;;;;;;;;;5056657;28;20458;-87
2022/07/16 04:42:42;;;;;;;4.53;4.13;;;;;;;;;;5050689;28;20399;-86
2022/07/16 04:45:09;;;;;;;6.20;4.10;;;;;;;;;;5060174;28;20421;-87
2022/07/16 04:47:35;;;;;;;3.70;3.60;;;;;;;;;;4689898;28;9999810;-89
2022/07/16 04:50:04;;;;;;;3.30;3.20;;;;;;;;;;5040671;28;20783;-89
2022/07/16 04:52:31;;;;;;;3.50;3.30;;;;;;;;;;5043756;28;20555;-87
2022/07/16 04:54:57;;;;;;;5.60;4.20;;;;;;;;;;5064635;28;20440;-89
2022/07/16 04:57:24;;;;;;;4.17;3.87;;;;;;;;;;5057365;28;20406;-88
2022/07/16 04:59:50;;;;;;;5.40;3.40;;;;;;;;;;5059717;28;20429;-88
2022/07/16 05:05:01;;;;;;;3.67;3.37;;;;;;;;;;5049285;28;20432;-88
2022/07/16 05:07:27;;;;;;;6.00;3.30;;;;;;;;;;5052096;28;20492;-88
2022/07/16 05:09:53;;;;;;;3.60;3.40;;;;;;;;;;5052363;28;20432;-87
2022/07/16 05:12:19;;;;;;;4.13;3.43;;;;;;;;;;5039846;28;20473;-88
2022/07/16 05:14:45;;;;;;;4.57;3.73;;;;;;;;;;5041063;28;20528;-89
2022/07/16 05:17:11;;;;;;;3.50;3.40;;;;;;;;;;5044090;28;20430;-88
2022/07/16 05:19:37;;;;;;;3.80;3.70;;;;;;;;;;5046241;28;20427;-89
2022/07/16 05:22:05;;;;;;;6.10;3.60;;;;;;;;;;5053773;28;20437;-89
2022/07/16 05:24:31;;;;;;;3.23;3.23;;;;;;;;;;5062774;28;20418;-89
2022/07/16 05:26:57;;;;;;;4.57;3.77;;;;;;;;;;5034983;28;21270;-89
2022/07/16 05:29:23;;;;;;;3.00;3.00;;;;;;;;;;5049989;28;20516;-88
2022/07/16 05:31:49;;;;;;;3.60;3.43;;;;;;;;;;5052144;28;20564;-89
2022/07/16 05:34:15;;;;;;;3.37;3.27;;;;;;;;;;5052699;28;20434;-89
2022/07/16 05:36:41;;;;;;;4.97;4.57;;;;;;;;;;5054299;28;20469;-89
2022/07/16 05:39:07;;;;;;;4.20;4.10;;;;;;;;;;5040954;28;20457;-89
2022/07/16 05:41:33;;;;;;;3.90;3.70;;;;;;;;;;5030606;28;20943;-88
2022/07/16 05:44:00;;;;;;;4.50;4.20;;;;;;;;;;5060000;28;20470;-88
2022/07/16 05:46:26;;;;;;;4.27;3.77;;;;;;;;;;5040636;28;20521;-88
2022/07/16 05:48:52;;;;;;;3.97;3.67;;;;;;;;;;5039750;28;20425;-87
2022/07/16 05:51:18;;;;;;;4.60;4.40;;;;;;;;;;5033695;28;20508;-89
2022/07/16 05:53:44;;;;;;;3.90;3.70;;;;;;;;;;5056308;28;20465;-89
2022/07/16 05:56:10;;;;;;;4.90;4.37;;;;;;;;;;5051001;28;20449;-88
2022/07/16 05:58:36;;;;;;;4.17;3.90;;;;;;;;;;5039045;28;20442;-88
2022/07/16 06:01:02;;;;;;;4.17;3.90;;;;;;;;;;5040280;28;20456;-88
2022/07/16 06:03:28;;;;;;;4.23;3.93;;;;;;;;;;5072077;28;20441;-88
2022/07/16 06:05:54;;;;;;;3.67;3.57;;;;;;;;;;5045871;28;20441;-88
2022/07/16 06:08:20;;;;;;;4.27;3.83;;;;;;;;;;5057634;28;20935;-88
2022/07/16 06:10:46;;;;;;;4.60;4.40;;;;;;;;;;5039401;28;20456;-89
2022/07/16 06:13:12;;;;;;;4.70;4.50;;;;;;;;;;5049128;28;20501;-89
2022/07/16 06:15:38;;;;;;;4.83;4.43;;;;;;;;;;5044034;28;20440;-88
2022/07/16 06:18:04;;;;;;;4.20;4.10;;;;;;;;;;5037794;28;20509;-88
2022/07/16 06:20:30;;;;;;;4.20;3.80;;;;;;;;;;5062524;28;20434;-88
2022/07/16 06:22:57;;;;;;;5.40;4.63;;;;;;;;;;5029986;28;20443;-90
2022/07/16 06:25:23;;;;;;;4.17;4.00;;;;;;;;;;5046804;28;20449;-88
2022/07/16 06:27:49;;;;;;;4.20;3.97;;;;;;;;;;5030072;28;20418;-89
2022/07/16 06:30:16;;;;;;;5.47;4.90;;;;;;;;;;5073600;28;20507;-88
2022/07/16 06:32:42;;;;;;;5.03;4.83;;;;;;;;;;5038494;28;20469;-90
2022/07/16 06:35:09;;;;;;;5.40;5.00;;;;;;;;;;5037575;28;20433;-89
2022/07/16 06:37:35;;;;;;;4.60;4.37;;;;;;;;;;5035516;28;20904;-90
2022/07/16 06:40:01;;;;;;;5.80;5.60;;;;;;;;;;5074346;28;20457;-90
2022/07/16 06:42:27;;;;;;;5.60;5.30;;;;;;;;;;5055141;28;20863;-89
2022/07/16 06:44:53;;;;;;;7.03;5.50;;;;;;;;;;5035624;28;20438;-89
2022/07/16 06:47:19;;;;;;;5.47;5.10;;;;;;;;;;5041377;28;20434;-88
2022/07/16 06:49:44;;;;;;;5.90;5.37;;;;;;;;;;5035658;28;20426;-89
2022/07/16 06:52:10;;;;;;;7.40;7.00;;;;;;;;;;5034565;28;21064;-89
2022/07/16 06:54:36;;;;;;;4.93;4.77;;;;;;;;;;5035714;28;20418;-88
2022/07/16 06:57:03;;;;;;;9.90;5.20;;;;;;;;;;5045382;28;20429;-89
2022/07/16 06:59:29;;;;;;;4.97;4.77;;;;;;;;;;5034589;28;20903;-88
2022/07/16 07:01:55;;;;;;;5.30;4.80;;;;;;;;;;5034401;28;20499;-88
2022/07/16 07:04:21;;;;;;;3.93;3.83;;;;;;;;;;5049144;28;20457;-89
2022/07/16 07:06:46;;;;;;;4.47;4.00;;;;;;;;;;5033193;28;20433;-86
2022/07/16 07:09:12;;;;;;;4.50;4.20;;;;;;;;;;5050588;28;20434;-87
2022/07/16 07:11:40;;;;;;;5.50;5.10;;;;;;;;;;5031010;28;20445;-87
2022/07/16 07:14:06;;;;;;;4.37;4.17;;;;;;;;;;5069765;28;20456;-88
2022/07/16 07:16:32;;;;;;;4.27;4.03;;;;;;;;;;5030980;28;21180;-87
2022/07/16 07:18:58;;;;;;;4.00;3.70;;;;;;;;;;5036505;28;21050;-88
2022/07/16 07:21:24;;;;;;;2.57;2.47;;;;;;;;;;5051204;28;21010;-89
2022/07/16 07:23:50;;;;;;;3.30;3.07;;;;;;;;;;5068482;28;20440;-90
2022/07/16 07:26:16;;;;;;;2.40;2.40;;;;;;;;;;5065083;28;20426;-90
2022/07/16 07:28:42;;;;;;;3.03;2.73;;;;;;;;;;5065842;28;20424;-91
2022/07/16 07:31:08;;;;;;;2.40;2.40;;;;;;;;;;5054272;28;20920;-89
2022/07/16 07:33:36;;;;;;;3.80;2.47;;;;;;;;;;5063191;28;20465;-90
2022/07/16 07:36:06;;;;;;;2.33;2.23;;;;;;;;;;5053840;28;20528;-91
2022/07/16 07:38:32;;;;;;;1.80;1.80;;;;;;;;;;5055395;28;20401;-88
2022/07/16 07:41:02;;;;;;;2.00;2.00;;;;;;;;;;5038911;28;20437;-89
2022/07/16 07:43:28;;;;;;;4.83;1.97;;;;;;;;;;5059272;28;21014;-88
2022/07/16 07:45:54;;;;;;;4.10;2.17;;;;;;;;;;5058025;28;20471;-89
2022/07/16 07:48:20;;;;;;;1.67;1.58;;;;;;;;;;4702190;28;10000029;-89
2022/07/16 07:50:46;;;;;;;1.30;1.30;;;;;;;;;;5056331;28;20261;-86
2022/07/16 07:53:12;;;;;;;1.40;1.40;;;;;;;;;;5034963;28;20504;-88
2022/07/16 07:55:38;;;;;;;1.40;1.40;;;;;;;;;;5065953;28;21808;-88
2022/07/16 07:58:05;;;;;;;1.63;1.33;;;;;;;;;;5035337;28;20500;-86
2022/07/16 08:00:31;;;;;;;1.53;1.53;;;;;;;;;;5047166;28;20441;-89
2022/07/16 08:02:57;;;;;;;1.53;1.40;;;;;;;;;;5036332;28;20445;-89
2022/07/16 08:05:23;;;;;;;0.70;0.70;;;;;;;;;;5055509;28;20923;-89
2022/07/16 08:07:49;;;;;;;1.30;1.30;;;;;;;;;;5035776;28;20472;-88
2022/07/16 08:10:15;;;;;;;2.37;2.20;;;;;;;;;;5032369;28;20442;-88
2022/07/16 08:12:41;;;;;;;1.00;1.00;;;;;;;;;;5029330;28;20514;-87
2022/07/16 08:15:08;;;;;;;1.07;1.07;;;;;;;;;;5029776;28;20434;-89
2022/07/16 08:17:37;;;;;;;2.60;1.10;;;;;;;;;;5029368;28;20491;-87
2022/07/16 08:20:04;;;;;;;1.40;1.40;;;;;;;;;;5048102;28;20816;-87
2022/07/16 08:22:30;;;;;;;1.90;1.20;;;;;;;;;;5047166;28;20421;-88
2022/07/16 08:27:40;;;;;;;2.20;1.30;;;;;;;;;;5045419;28;20461;-88
2022/07/16 08:30:07;;;;;;;2.47;2.27;;;;;;;;;;5038173;28;20438;-88
2022/07/16 08:32:33;;;;;;;1.40;1.40;;;;;;;;;;5033476;28;20990;-89
2022/07/16 08:34:59;;;;;;;1.40;1.40;;;;;;;;;;5053594;28;20797;-87
2022/07/16 08:37:33;;;;;;;2.30;1.20;;;;;;;;;;5043291;28;20425;-89
2022/07/16 08:39:59;;;;;;;1.80;1.70;;;;;;;;;;5043041;28;21290;-90
2022/07/16 08:42:26;;;;;;;1.20;1.20;;;;;;;;;;5053634;28;20429;-88
2022/07/16 08:44:52;;;;;;;1.60;1.50;;;;;;;;;;5037191;28;20434;-87
2022/07/16 08:47:18;;;;;;;1.10;1.00;;;;;;;;;;4682106;28;10000023;-89
2022/07/16 08:49:44;;;;;;;1.33;1.30;;;;;;;;;;5047983;28;20704;-88
2022/07/16 08:52:12;;;;;;;1.53;1.53;;;;;;;;;;5051777;28;20464;-88
2022/07/16 08:54:38;;;;;;;2.07;1.47;;;;;;;;;;5039068;28;20461;-87
2022/07/16 08:57:05;;;;;;;4.13;2.57;;;;;;;;;;5058038;28;20436;-88
2022/07/16 08:59:31;;;;;;;1.87;1.70;;;;;;;;;;5061988;28;20779;-87
2022/07/16 09:02:00;;;;;;;1.10;1.10;;;;;;;;;;5043580;28;20469;-88
2022/07/16 09:04:26;;;;;;;1.33;1.17;;;;;;;;;;5054967;28;21119;-87
2022/07/16 09:06:52;;;;;;;4.70;1.47;;;;;;;;;;5048262;28;20429;-88
2022/07/16 09:09:23;;;;;;;1.43;1.43;;;;;;;;;;5036805;28;20461;-87
2022/07/16 09:11:49;;;;;;;1.50;1.40;;;;;;;;;;5031619;28;20442;-89
2022/07/16 09:14:16;;;;;;;1.13;1.10;;;;;;;;;;5057725;28;20445;-88
2022/07/16 09:16:43;;;;;;;2.20;1.40;;;;;;;;;;5037213;28;20457;-87
2022/07/16 09:19:11;;;;;;;1.50;1.30;;;;;;;;;;5047944;28;20433;-89
2022/07/16 09:21:38;;;;;;;1.20;1.20;;;;;;;;;;5028079;28;20783;-89
2022/07/16 09:24:04;;;;;;;1.00;1.00;;;;;;;;;;5057976;28;20434;-89
2022/07/16 09:26:30;;;;;;;1.30;1.30;;;;;;;;;;5042334;28;20521;-89
2022/07/16 09:29:00;;;;;;;1.23;1.23;;;;;;;;;;5034335;28;20449;-89
2022/07/16 09:31:35;;;;;;;2.63;1.40;;;;;;;;;;5052787;28;20473;-88
2022/07/16 09:34:13;;;;;;;1.60;1.60;;;;;;;;;;5046417;28;20617;-91
2022/07/16 09:36:40;;;;;;;1.63;1.60;;;;;;;;;;5071012;28;20461;-91
2022/07/16 09:39:15;;;;;;;1.10;1.10;;;;;;;;;;5065374;28;20789;-92
2022/07/16 09:41:42;;;;;;;5.50;1.40;;;;;;;;;;5047632;28;20783;-89
2022/07/16 09:44:19;;;;;;;1.57;1.57;;;;;;;;;;5070043;28;20428;-91
2022/07/16 09:46:57;;;;;;;1.70;1.60;;;;;;;;;;5029233;28;20828;-92
2022/07/16 09:49:23;;;;;;;2.20;1.67;;;;;;;;;;5045217;28;20418;-89
2022/07/16 09:51:49;;;;;;;1.40;1.30;;;;;;;;;;5062552;28;20685;-92
2022/07/16 09:54:30;;;;;;;1.40;1.40;;;;;;;;;;5067166;28;20437;-91
2022/07/16 09:57:23;;;;;;;1.30;1.20;;;;;;;;;;5046444;28;20745;-89
2022/07/16 10:02:28;;;;;;;1.40;1.40;;;;;;;;;;5154495;22;20491;-87
2022/07/16 10:04:57;;;;;;;1.47;1.47;;;;;;;;;;5049901;28;20426;-91
2022/07/16 10:07:23;;;;;;;2.57;1.20;;;;;;;;;;5068375;28;20421;-88
2022/07/16 10:09:56;;;;;;;1.27;1.27;;;;;;;;;;5066422;28;20762;-93
2022/07/16 10:12:23;;;;;;;1.10;1.10;;;;;;;;;;5062960;28;20492;-93
2022/07/16 10:14:59;;;;;;;1.70;1.70;;;;;;;;;;5072032;28;20439;-93
2022/07/16 10:18:08;;;;;;;1.27;1.27;;;;;;;;;;5077185;28;20437;-91
2022/07/16 10:20:36;;;;;;;1.30;1.30;;;;;;;;;;5076801;28;20505;-89
2022/07/16 10:23:11;;;;;;;1.13;1.13;;;;;;;;;;5060574;28;20467;-92
2022/07/16 10:25:37;;;;;;;1.63;1.63;;;;;;;;;;5063331;28;20481;-92
2022/07/16 10:28:26;;;;;;;1.80;1.80;;;;;;;;;;5066058;28;20434;-94
2022/07/16 10:31:12;;;;;;;1.30;1.30;;;;;;;;;;5054243;28;20413;-90
2022/07/16 10:33:43;;;;;;;1.40;1.40;;;;;;;;;;5069298;28;20502;-95
2022/07/16 10:36:10;;;;;;;1.63;1.63;;;;;;;;;;5047704;28;20442;-93
2022/07/16 10:38:36;;;;;;;1.80;1.50;;;;;;;;;;5049918;28;20415;-90
2022/07/16 10:41:05;;;;;;;1.50;1.40;;;;;;;;;;5069528;28;20457;-89
2022/07/16 10:43:37;;;;;;;1.30;1.30;;;;;;;;;;5070729;28;20450;-89
2022/07/16 10:46:07;;;;;;;1.40;1.40;;;;;;;;;;5063442;28;20441;-91
2022/07/16 10:48:39;;;;;;;1.33;1.33;;;;;;;;;;5336537;23;20484;-91
2022/07/16 10:51:19;;;;;;;1.23;1.23;;;;;;;;;;5057122;28;20469;-92
2022/07/16 10:53:57;;;;;;;1.10;1.10;;;;;;;;;;5050437;28;20510;-94
2022/07/16 10:56:36;;;;;;;1.17;1.17;;;;;;;;;;5073662;28;20413;-91
2022/07/16 10:59:03;;;;;;;1.17;1.17;;;;;;;;;;5074327;28;20460;-93
2022/07/16 11:01:36;;;;;;;1.57;1.57;;;;;;;;;;5036099;28;20438;-93
2022/07/16 11:04:03;;;;;;;1.23;1.23;;;;;;;;;;5069312;28;20516;-91
2022/07/16 11:06:29;;;;;;;2.77;2.67;;;;;;;;;;5070772;28;20441;-92
2022/07/16 11:08:56;;;;;;;1.13;1.13;;;;;;;;;;5076290;28;20440;-94
2022/07/16 11:11:24;;;;;;;2.20;1.50;;;;;;;;;;5085511;28;20486;-90
2022/07/16 11:13:53;;;;;;;1.20;1.20;;;;;;;;;;5066860;28;20488;-91
2022/07/16 11:16:25;;;;;;;1.43;1.43;;;;;;;;;;5051051;28;21302;-88
2022/07/16 11:18:59;;;;;;;1.20;1.20;;;;;;;;;;5065222;28;20444;-91
2022/07/16 11:21:31;;;;;;;3.50;1.40;;;;;;;;;;5066955;28;20446;-91
2022/07/16 11:23:59;;;;;;;1.00;1.00;;;;;;;;;;5087266;28;20433;-92
2022/07/16 11:29:06;;;;;;;1.50;1.50;;;;;;;;;;4809079;22;20488;-89
2022/07/16 11:31:36;;;;;;;1.43;1.07;;;;;;;;;;5068717;28;20430;-92
2022/07/16 11:34:04;;;;;;;1.60;1.50;;;;;;;;;;5071678;28;20461;-93
2022/07/16 11:36:39;;;;;;;1.33;1.30;;;;;;;;;;5075969;28;20474;-92
2022/07/16 11:39:12;;;;;;;1.20;1.20;;;;;;;;;;5076890;28;20441;-92
2022/07/16 11:41:39;;;;;;;1.43;1.20;;;;;;;;;;5065384;28;21077;-91
2022/07/16 11:44:12;;;;;;;1.07;1.07;;;;;;;;;;5067059;28;20409;-89
2022/07/16 11:47:00;;;;;;;2.03;1.80;;;;;;;;;;5051537;28;20449;-92
2022/07/16 11:49:26;;;;;;;1.23;1.23;;;;;;;;;;5069270;28;20431;-91
2022/07/16 11:51:53;;;;;;;3.97;3.50;;;;;;;;;;5042634;28;20516;-91
2022/07/16 11:54:19;;;;;;;1.40;1.40;;;;;;;;;;5061521;28;20417;-91
2022/07/16 11:56:45;;;;;;;1.40;1.40;;;;;;;;;;5051991;28;20963;-91
2022/07/16 11:59:22;;;;;;;3.03;1.40;;;;;;;;;;5069080;28;20448;-90
2022/07/16 12:01:57;;;;;;;1.40;1.40;;;;;;;;;;5049379;28;20421;-93
2022/07/16 12:04:40;;;;;;;1.50;1.50;;;;;;;;;;5074636;28;20456;-92
2022/07/16 12:07:07;;;;;;;3.97;3.57;;;;;;;;;;5049058;28;20452;-91
2022/07/16 12:09:38;;;;;;;1.60;1.60;;;;;;;;;;5045853;28;20466;-91
2022/07/16 12:12:05;;;;;;;2.97;2.20;;;;;;;;;;5051866;28;20452;-89
2022/07/16 12:14:44;;;;;;;2.10;2.00;;;;;;;;;;5085834;28;20404;-92
2022/07/16 12:17:28;;;;;;;1.13;1.13;;;;;;;;;;5055678;28;20466;-90
2022/07/16 12:20:07;;;;;;;2.47;1.57;;;;;;;;;;5079036;28;20429;-90
2022/07/16 12:22:42;;;;;;;2.93;1.63;;;;;;;;;;5065763;28;20432;-88
2022/07/16 12:25:33;;;;;;;3.37;1.60;;;;;;;;;;5067418;28;20478;-89
2022/07/16 12:28:03;;;;;;;1.47;1.37;;;;;;;;;;5055159;28;20449;-92
2022/07/16 12:30:32;;;;;;;2.07;1.77;;;;;;;;;;5065525;28;20435;-89
2022/07/16 12:32:59;;;;;;;0.93;0.90;;;;;;;;;;5059456;28;20520;-91
2022/07/16 12:35:40;;;;;;;2.43;1.17;;;;;;;;;;5064231;28;20426;-92
2022/07/16 12:38:07;;;;;;;1.90;1.20;;;;;;;;;;5041566;28;20430;-92
2022/07/16 12:40:40;;;;;;;1.90;1.80;;;;;;;;;;5053267;28;20455;-92
2022/07/16 12:43:07;;;;;;;5.50;5.20;;;;;;;;;;5061919;28;20425;-91
2022/07/16 12:45:35;;;;;;;2.05;1.65;;;;;;;;;;4695122;28;10000749;-91
2022/07/16 12:48:01;;;;;;;1.33;1.27;;;;;;;;;;5049857;28;20611;-92
2022/07/16 12:50:32;;;;;;;0.90;0.90;;;;;;;;;;5046647;28;20414;-91
2022/07/16 12:52:59;;;;;;;1.33;1.00;;;;;;;;;;5060538;28;20468;-90
2022/07/16 13:00:58;;;;;;;2.50;1.33;;;;;;;;;;5050494;28;20414;-92
2022/07/16 13:03:24;;;;;;;1.23;1.23;;;;;;;;;;5065242;28;20453;-92
2022/07/16 13:05:51;;;;;;;1.53;1.43;;;;;;;;;;5049042;28;20434;-92
2022/07/16 13:08:17;;;;;;;1.10;1.00;;;;;;;;;;5052368;28;20509;-89
2022/07/16 13:10:46;;;;;;;1.37;1.37;;;;;;;;;;5050592;28;20464;-91
2022/07/16 13:13:15;;;;;;;1.90;1.80;;;;;;;;;;5057531;28;20473;-90
2022/07/16 13:15:42;;;;;;;1.63;1.63;;;;;;;;;;5064597;28;20493;-92
2022/07/16 13:18:11;;;;;;;1.43;1.33;;;;;;;;;;5067522;28;20434;-91
2022/07/16 13:20:40;;;;;;;1.60;1.60;;;;;;;;;;5059084;28;20518;-90
2022/07/16 13:23:07;;;;;;;1.80;1.80;;;;;;;;;;5049577;28;20471;-90
2022/07/16 13:25:35;;;;;;;1.53;1.20;;;;;;;;;;5069639;28;20394;-92
2022/07/16 13:28:04;;;;;;;1.20;1.20;;;;;;;;;;5051758;28;20533;-91
2022/07/16 13:30:30;;;;;;;2.83;0.90;;;;;;;;;;5071454;28;20452;-90
2022/07/16 13:32:57;;;;;;;1.43;1.33;;;;;;;;;;5060790;28;20473;-91
2022/07/16 13:35:25;;;;;;;1.27;1.27;;;;;;;;;;5052097;28;20441;-93
2022/07/16 13:37:55;;;;;;;1.00;1.00;;;;;;;;;;5066596;28;20472;-91
2022/07/16 13:40:26;;;;;;;1.50;1.50;;;;;;;;;;5061505;28;20433;-92
2022/07/16 13:42:52;;;;;;;2.83;1.10;;;;;;;;;;5058745;28;20501;-91
2022/07/16 13:45:34;;;;;;;1.23;1.23;;;;;;;;;;5065904;28;20509;-91
2022/07/16 13:48:05;;;;;;;1.47;1.43;;;;;;;;;;5058961;28;21103;-92
2022/07/16 13:50:38;;;;;;;1.40;1.30;;;;;;;;;;5060024;28;20413;-92
2022/07/16 13:53:24;;;;;;;1.43;1.27;;;;;;;;;;5053970;28;20470;-90
2022/07/16 13:55:54;;;;;;;1.73;1.20;;;;;;;;;;5055710;28;20410;-91
2022/07/16 13:58:32;;;;;;;;;;;;;;;;;;;;;
2022/07/16 14:01:02;;;;;;;1.20;1.10;;;;;;;;;;5070362;28;20488;-91
2022/07/16 14:03:35;;;;;;;1.33;1.23;;;;;;;;;;5063744;28;20506;-90
2022/07/16 14:06:05;;;;;;;1.43;1.40;;;;;;;;;;5059723;28;20445;-91
2022/07/16 14:08:42;;;;;;;1.37;1.00;;;;;;;;;;5059438;28;20427;-92
2022/07/16 14:11:12;;;;;;;2.50;1.83;;;;;;;;;;5069458;28;20442;-91
2022/07/16 14:13:38;;;;;;;1.17;1.07;;;;;;;;;;5070559;28;20473;-90
2022/07/16 14:16:05;;;;;;;2.90;1.57;;;;;;;;;;5047996;28;20845;-91
2022/07/16 14:18:31;;;;;;;0.97;0.97;;;;;;;;;;5062401;28;20438;-89
2022/07/16 14:21:01;;;;;;;1.33;1.20;;;;;;;;;;5071806;28;20414;-92
2022/07/16 14:23:39;;;;;;;1.20;1.10;;;;;;;;;;5034528;28;20550;-92
2022/07/16 14:26:11;;;;;;;3.17;3.07;;;;;;;;;;5059819;28;20422;-91
2022/07/16 14:28:39;;;;;;;1.63;1.13;;;;;;;;;;5163129;23;21029;-92
2022/07/16 14:31:18;;;;;;;;;;;;;;;;;;;;;
2022/07/16 14:33:46;;;;;;;1.10;1.10;;;;;;;;;;5005499;28;20550;-91
2022/07/16 14:36:13;;;;;;;1.13;1.13;;;;;;;;;;5013937;28;20498;-92
2022/07/16 14:38:39;;;;;;;1.40;1.13;;;;;;;;;;5015717;28;20436;-91
2022/07/16 14:41:07;;;;;;;0.80;0.80;;;;;;;;;;5010511;28;20435;-89
2022/07/16 14:43:34;;;;;;;1.10;1.00;;;;;;;;;;5013601;28;20455;-92
2022/07/16 14:46:00;;;;;;;1.50;1.50;;;;;;;;;;5014202;28;20431;-89
2022/07/16 14:48:26;;;;;;;1.03;1.03;;;;;;;;;;5007008;28;20439;-91
2022/07/16 14:50:52;;;;;;;1.27;1.00;;;;;;;;;;5013317;28;20493;-91
2022/07/16 14:53:18;;;;;;;1.70;1.60;;;;;;;;;;5022326;28;20467;-90
2022/07/16 14:55:44;;;;;;;1.33;1.10;;;;;;;;;;5022623;28;20431;-91
2022/07/16 14:58:10;;;;;;;1.20;1.10;;;;;;;;;;5016460;28;20471;-90
2022/07/16 15:00:37;;;;;;;1.27;1.27;;;;;;;;;;5013134;28;20447;-92
2022/07/16 15:03:03;;;;;;;2.00;1.40;;;;;;;;;;5015005;28;20522;-92
2022/07/16 15:05:32;;;;;;;1.43;1.20;;;;;;;;;;5013842;28;20495;-89
2022/07/16 15:07:58;;;;;;;1.50;1.40;;;;;;;;;;5019993;28;20459;-90
2022/07/16 15:10:25;;;;;;;1.50;1.40;;;;;;;;;;5009066;28;20432;-91
2022/07/16 15:12:51;;;;;;;1.20;1.17;;;;;;;;;;5006639;28;20475;-92